Betty Knutsen — LAMC5 — position and weather

sailwx.info

Track history (hours):
 
Tides and Currents Weather Stations Pressure Air Temp Water Temp Dewpoint Dewpoint Depression Visibility Wind Speed Wind Dir Waves Ship Positions

Betty Knutsen

Last reported at 2017-Sep-25 05:58 UTC. Time now 2017-Sep-25 06:19 UTC.
Position N 04°42' W 002°41'.

Length 187 m; draft 8.8 m.

Type: Tanker. MMSI: 257392000.

Date/timePositionNaut miles runAvg speedWind from/ knotsBaromVisibWave heightAir tempDewpointWater temp
2017-Sep-25 05:58N 04°42' W 002°41'0 0.0
2017-Sep-25 05:28N 04°42' W 002°41'0 0.0
2017-Sep-25 04:58N 04°42' W 002°41'0 0.0
2017-Sep-25 04:25N 04°42' W 002°41'0 0.0
2017-Sep-25 03:58N 04°42' W 002°41'0 0.0
2017-Sep-25 03:13N 04°42' W 002°41'0 0.1
2017-Sep-25 02:43N 04°42' W 002°41'0 0.0
2017-Sep-25 02:28N 04°42' W 002°41'0 0.0
2017-Sep-25 01:58N 04°42' W 002°41'0 0.0
2017-Sep-25 01:28N 04°42' W 002°41'0 0.0
2017-Sep-25 00:58N 04°42' W 002°41'0 0.0
2017-Sep-25 00:22N 04°42' W 002°41'0 0.0
2017-Sep-24 23:55N 04°42' W 002°41'0 0.0
2017-Sep-24 23:28N 04°42' W 002°41'0 0.0
2017-Sep-24 22:58N 04°42' W 002°41'0 0.0
2017-Sep-24 22:28N 04°42' W 002°41'0 0.1
2017-Sep-24 21:58N 04°42' W 002°41'0 0.1
2017-Sep-24 21:28N 04°42' W 002°41'0 0.0
2017-Sep-24 20:58N 04°42' W 002°41'0 0.1
2017-Sep-24 20:25N 04°42' W 002°41'0 0.0
2017-Sep-24 19:58N 04°42' W 002°41'0 0.1
2017-Sep-24 19:28N 04°42' W 002°41'0 0.0
2017-Sep-24 18:58N 04°42' W 002°41'0 0.1
2017-Sep-24 18:28N 04°42' W 002°41'0 0.1
2017-Sep-24 17:58N 04°42' W 002°41'0 0.2
2017-Sep-24 17:28N 04°42' W 002°41'0 0.0
2017-Sep-24 16:55N 04°42' W 002°41'0 0.0
2017-Sep-24 16:28N 04°42' W 002°41'0 0.0
2017-Sep-24 15:58N 04°42' W 002°41'0 0.0
2017-Sep-24 15:28N 04°42' W 002°41'0 0.0
2017-Sep-24 14:58N 04°42' W 002°41'0 0.0
2017-Sep-24 14:28N 04°42' W 002°41'0 0.0
2017-Sep-24 13:58N 04°42' W 002°41'0 0.0
2017-Sep-24 13:28N 04°42' W 002°41'0 0.0
2017-Sep-24 12:58N 04°42' W 002°41'0 0.0
2017-Sep-24 12:28N 04°42' W 002°41'0 0.1
2017-Sep-24 11:58N 04°42' W 002°41'0 0.1
2017-Sep-24 11:28N 04°42' W 002°41'0 0.0
2017-Sep-24 10:58N 04°42' W 002°41'0 0.0
2017-Sep-24 10:28N 04°42' W 002°41'0 0.0
2017-Sep-24 09:58N 04°42' W 002°41'0 0.1
2017-Sep-24 09:28N 04°42' W 002°41'0 0.1
2017-Sep-24 09:01N 04°42' W 002°41'0 0.0
2017-Sep-24 08:31N 04°42' W 002°41'0 0.1
2017-Sep-24 08:00N 04°42' W 002°41'0 0.1
2017-Sep-24 07:30N 04°42' W 002°41'0 0.1
2017-Sep-24 06:58N 04°42' W 002°41'0 0.0
2017-Sep-24 06:30N 04°42' W 002°41'0 0.0
2017-Sep-24 06:00N 04°42' W 002°41'0 0.1
2017-Sep-24 05:30N 04°42' W 002°41'0 0.0
2017-Sep-24 05:00N 04°42' W 002°41'0 0.0
2017-Sep-24 04:27N 04°42' W 002°41'0 0.0
2017-Sep-24 04:00N 04°42' W 002°41'0 0.0
2017-Sep-24 03:30N 04°42' W 002°41'0 0.0
2017-Sep-24 03:00N 04°42' W 002°41'0 0.0
2017-Sep-24 02:30N 04°42' W 002°41'0 0.0
2017-Sep-24 02:00N 04°42' W 002°41'0 0.0
2017-Sep-24 01:30N 04°42' W 002°41'0 0.0
2017-Sep-24 01:00N 04°42' W 002°41'0 0.0
2017-Sep-24 00:30N 04°42' W 002°41'0 0.0
2017-Sep-24 00:00N 04°42' W 002°41'0 0.0
2017-Sep-23 23:30N 04°42' W 002°41'0 0.0
2017-Sep-23 23:00N 04°42' W 002°41'0 0.0
2017-Sep-23 22:30N 04°42' W 002°41'0 0.1
2017-Sep-23 22:00N 04°42' W 002°41'0 0.1
2017-Sep-23 21:30N 04°42' W 002°41'0 0.0
2017-Sep-23 21:00N 04°42' W 002°41'0 0.0
2017-Sep-23 20:30N 04°42' W 002°41'0 0.0
2017-Sep-23 20:00N 04°42' W 002°41'13 0.3
2017-Sep-22 02:00N 04°46' W 002°54'1 2.0
2017-Sep-22 01:29N 04°47' W 002°54'1 1.9
2017-Sep-22 00:59N 04°47' W 002°55'1 2.0
2017-Sep-22 00:30N 04°48' W 002°56'1 2.1
2017-Sep-22 00:00N 04°48' W 002°57'8 1.3
2017-Sep-21 17:42N 04°42' W 002°52'1 3.8
2017-Sep-21 17:23N 04°41' W 002°51'1 3.7
2017-Sep-21 17:00N 04°40' W 002°50'2 3.2
2017-Sep-21 16:30N 04°39' W 002°48'1 2.9
2017-Sep-21 16:00N 04°38' W 002°47'2 3.8
2017-Sep-21 15:29N 04°37' W 002°46'3 6.6
2017-Sep-21 15:01N 04°36' W 002°43'4 7.7
2017-Sep-21 14:30N 04°38' W 002°39'4 7.6
2017-Sep-21 14:00N 04°39' W 002°35'4 7.5
2017-Sep-21 13:29N 04°41' W 002°32'4 7.8
2017-Sep-21 12:59N 04°41' W 002°28'4 7.8
2017-Sep-21 12:30N 04°40' W 002°24'4 7.8
2017-Sep-21 12:00N 04°40' W 002°20'4 7.6
2017-Sep-21 11:29N 04°40' W 002°16'4 7.4
2017-Sep-21 10:59N 04°40' W 002°13'4 7.3
2017-Sep-21 10:29N 04°39' W 002°09'3 7.2
2017-Sep-21 10:01N 04°39' W 002°06'4 7.4
2017-Sep-21 09:30N 04°39' W 002°02'4 7.6
2017-Sep-21 09:00N 04°39' W 001°58'4 6.9
2017-Sep-21 08:29N 04°40' W 001°55'4 7.8
2017-Sep-21 07:55N 04°43' W 001°52'12 0.3
2017-Sep-19 18:22N 04°52' W 001°43'0 0.0
2017-Sep-19 18:01N 04°52' W 001°43'0 0.0
2017-Sep-19 17:27N 04°52' W 001°43'0 0.0
2017-Sep-19 17:00N 04°52' W 001°43'0 0.0
2017-Sep-19 16:30N 04°52' W 001°43'0 0.0
2017-Sep-19 16:00N 04°52' W 001°43'0 0.0
2017-Sep-19 15:30N 04°52' W 001°43'0 0.0
2017-Sep-19 15:00N 04°52' W 001°43'0 0.1
2017-Sep-19 14:30N 04°52' W 001°43'0 0.1
2017-Sep-19 14:00N 04°52' W 001°43'0 0.0
2017-Sep-19 13:27N 04°52' W 001°43'0 0.0
2017-Sep-19 13:00N 04°52' W 001°43'0 0.0
2017-Sep-19 12:30N 04°52' W 001°43'0 0.0
2017-Sep-19 12:00N 04°52' W 001°43'0 0.1
2017-Sep-19 11:30N 04°52' W 001°43'0 0.1
2017-Sep-19 11:00N 04°52' W 001°43'0 0.1
2017-Sep-19 10:30N 04°52' W 001°43'0 0.0
2017-Sep-19 10:00N 04°52' W 001°43'0 0.0
2017-Sep-19 09:30N 04°52' W 001°43'0 0.0
2017-Sep-19 09:00N 04°52' W 001°43'0 0.9
2017-Sep-19 08:29N 04°52' W 001°43'2 4.8
2017-Sep-19 08:01N 04°50' W 001°44'2 4.0
2017-Sep-19 07:30N 04°48' W 001°46'3 4.9
2017-Sep-19 06:57N 04°46' W 001°48'2 5.3
2017-Sep-19 06:30N 04°44' W 001°49'3 5.2
2017-Sep-19 05:57N 04°42' W 001°51'2 5.3
2017-Sep-19 05:29N 04°41' W 001°53'3 5.6
2017-Sep-19 04:57N 04°39' W 001°55'8 5.6
2017-Sep-19 03:35N 04°34' W 002°02'1 4.8
2017-Sep-19 03:19N 04°35' W 002°03'2 5.2
2017-Sep-19 02:59N 04°36' W 002°04'2 4.5
2017-Sep-19 02:29N 04°36' W 002°06'2 4.9
2017-Sep-19 02:00N 04°38' W 002°08'2 4.8
2017-Sep-19 01:30N 04°39' W 002°11'3 4.6
2017-Sep-19 00:52N 04°40' W 002°13'2 4.5
2017-Sep-19 00:30N 04°41' W 002°15'3 4.7
2017-Sep-18 23:57N 04°41' W 002°17'2 4.4
2017-Sep-18 23:30N 04°41' W 002°19'2 4.9
2017-Sep-18 23:00N 04°40' W 002°22'2 4.7
2017-Sep-18 22:29N 04°39' W 002°24'2 4.3
2017-Sep-18 21:59N 04°40' W 002°26'2 4.4
2017-Sep-18 21:29N 04°40' W 002°28'2 4.4
2017-Sep-18 21:00N 04°41' W 002°30'2 4.4
2017-Sep-18 20:30N 04°41' W 002°32'2 4.4
2017-Sep-18 20:00N 04°41' W 002°35'2 4.5
2017-Sep-18 19:29N 04°41' W 002°37'2 4.5
2017-Sep-18 18:59N 04°42' W 002°39'2 4.1
2017-Sep-18 18:30N 04°42' W 002°41'0 0.6
2017-Sep-18 18:00N 04°42' W 002°41'0 0.1
2017-Sep-18 17:30N 04°42' W 002°41'0 0.0
2017-Sep-18 17:00N 04°42' W 002°41'0 0.0
2017-Sep-18 16:30N 04°42' W 002°41'0 0.0
2017-Sep-18 15:57N 04°42' W 002°41'0 0.1
2017-Sep-18 15:30N 04°42' W 002°41'0 0.0
2017-Sep-18 15:00N 04°42' W 002°41'0 0.0
2017-Sep-18 14:30N 04°42' W 002°41'0 0.0
2017-Sep-18 14:00N 04°42' W 002°41'0 0.0
2017-Sep-18 13:30N 04°42' W 002°41'0 0.0
2017-Sep-18 13:00N 04°42' W 002°41'0 0.0
2017-Sep-18 12:30N 04°42' W 002°41'0 0.0
2017-Sep-18 12:00N 04°42' W 002°41'0 0.0
2017-Sep-18 11:30N 04°42' W 002°41'0 0.0
2017-Sep-18 11:00N 04°42' W 002°41'0 0.0
2017-Sep-18 10:29N 04°42' W 002°41'0 0.0
2017-Sep-18 09:59N 04°42' W 002°41'0 0.0
2017-Sep-18 09:29N 04°42' W 002°41'0 0.0
2017-Sep-18 08:59N 04°42' W 002°41'0 0.0
2017-Sep-18 08:29N 04°42' W 002°41'0 0.0
2017-Sep-18 07:59N 04°42' W 002°41'0 0.1
2017-Sep-18 07:29N 04°42' W 002°41'0 0.0
2017-Sep-18 06:59N 04°42' W 002°41'0 0.0
2017-Sep-18 06:29N 04°42' W 002°41'0 0.0
2017-Sep-18 05:56N 04°42' W 002°41'0 0.0
2017-Sep-18 05:29N 04°42' W 002°41'0 0.0
2017-Sep-18 04:59N 04°42' W 002°41'0 0.0
2017-Sep-18 04:29N 04°42' W 002°41'0 0.0
2017-Sep-18 03:59N 04°42' W 002°41'0 0.0
2017-Sep-18 03:29N 04°42' W 002°41'0 0.0
2017-Sep-18 02:59N 04°42' W 002°41'0 0.0
2017-Sep-18 02:29N 04°42' W 002°41'0 0.0
2017-Sep-18 01:59N 04°42' W 002°41'0 0.1
2017-Sep-18 01:29N 04°42' W 002°41'0 0.0
2017-Sep-18 00:59N 04°42' W 002°41'0 0.0
2017-Sep-18 00:29N 04°42' W 002°41'0 0.1
2017-Sep-17 23:59N 04°42' W 002°41'0 0.0
2017-Sep-17 23:29N 04°42' W 002°41'0 0.1
2017-Sep-17 22:59N 04°42' W 002°41'0 0.1
2017-Sep-17 22:29N 04°42' W 002°41'0 0.0
2017-Sep-17 21:59N 04°42' W 002°41'0 0.1
2017-Sep-17 21:29N 04°42' W 002°41'0 0.1
2017-Sep-17 20:59N 04°42' W 002°41'0 0.0
2017-Sep-17 20:29N 04°42' W 002°41'0 0.0
2017-Sep-17 19:59N 04°42' W 002°41'0 0.0
2017-Sep-17 19:29N 04°42' W 002°41'0 0.0
2017-Sep-17 18:59N 04°42' W 002°41'0 0.0
2017-Sep-17 18:29N 04°42' W 002°41'0 0.0
2017-Sep-17 17:59N 04°42' W 002°41'0 0.0
2017-Sep-17 17:29N 04°42' W 002°41'0 0.0
2017-Sep-17 16:59N 04°42' W 002°41'0 0.0
2017-Sep-17 16:29N 04°42' W 002°41'0 0.1
2017-Sep-17 15:59N 04°42' W 002°41'0 0.0
2017-Sep-17 15:29N 04°42' W 002°41'0 0.0
2017-Sep-17 14:59N 04°42' W 002°41'0 0.1
2017-Sep-17 14:28N 04°42' W 002°41'0 0.0
2017-Sep-17 13:56N 04°42' W 002°41'0 0.1
2017-Sep-17 13:30N 04°42' W 002°41'0 0.0
2017-Sep-17 13:00N 04°42' W 002°41'0 0.0
2017-Sep-17 12:30N 04°42' W 002°41'0 0.0
2017-Sep-17 12:00N 04°42' W 002°41'0 0.0
2017-Sep-17 11:30N 04°42' W 002°41'0 0.1
2017-Sep-17 10:57N 04°42' W 002°41'0 0.0
2017-Sep-17 10:30N 04°42' W 002°41'0 0.0
2017-Sep-17 09:58N 04°42' W 002°41'0 0.0
2017-Sep-17 09:28N 04°42' W 002°41'0 0.0
2017-Sep-17 08:59N 04°42' W 002°41'0 0.3
2017-Sep-17 08:30N 04°42' W 002°41'1 2.0
2017-Sep-17 08:00N 04°43' W 002°42'1 2.4
2017-Sep-17 07:29N 04°44' W 002°42'1 1.2
2017-Sep-17 06:59N 04°45' W 002°42'1 1.2
2017-Sep-17 06:30N 04°45' W 002°43'2 4.3
2017-Sep-17 06:00N 04°43' W 002°44'2 4.3
2017-Sep-17 05:28N 04°41' W 002°44'2 4.4
2017-Sep-17 05:00N 04°38' W 002°44'2 4.2
2017-Sep-17 04:29N 04°36' W 002°44'2 4.6
2017-Sep-17 04:01N 04°34' W 002°44'3 5.1
2017-Sep-17 03:30N 04°32' W 002°45'2 3.8
2017-Sep-17 03:00N 04°30' W 002°45'1 2.5
2017-Sep-17 02:29N 04°31' W 002°45'1 2.4
2017-Sep-17 01:59N 04°32' W 002°45'1 2.4
2017-Sep-17 01:31N 04°33' W 002°45'1 2.3
2017-Sep-17 01:00N 04°34' W 002°45'1 2.4
2017-Sep-17 00:30N 04°36' W 002°45'1 2.4
2017-Sep-17 00:00N 04°37' W 002°45'2 3.0
2017-Sep-16 23:29N 04°38' W 002°45'2 3.6
2017-Sep-16 22:59N 04°40' W 002°46'2 3.6
2017-Sep-16 22:30N 04°41' W 002°46'2 3.4
2017-Sep-16 22:00N 04°43' W 002°47'2 3.6
2017-Sep-16 21:29N 04°44' W 002°48'4 7.1
2017-Sep-16 20:59N 04°46' W 002°51'5 9.2
2017-Sep-16 20:29N 04°44' W 002°55'4 8.9
2017-Sep-16 20:00N 04°45' W 002°60'4 6.9
2017-Sep-16 19:30N 04°45' W 003°03'1 2.0
2017-Sep-16 19:00N 04°46' W 003°03'1 2.0
2017-Sep-16 18:30N 04°47' W 003°03'1 1.9
2017-Sep-16 17:58N 04°48' W 003°03'1 1.9
2017-Sep-16 17:28N 04°49' W 003°03'1 1.6
2017-Sep-16 16:58N 04°50' W 003°03'1 2.1
2017-Sep-16 16:23N 04°51' W 003°03'1 1.2
2017-Sep-16 15:57N 04°52' W 003°03'7 3.7
2017-Sep-16 13:58N 04°44' W 003°02'2 4.8
2017-Sep-16 13:30N 04°42' W 003°02'9 5.0
2017-Sep-16 11:42N 04°33' W 003°01'4 4.2
2017-Sep-16 10:42N 04°30' W 002°60'2 6.5
2017-Sep-16 10:26N 04°28' W 002°59'2 5.3
2017-Sep-16 09:59N 04°26' W 002°57'2 3.8
2017-Sep-16 09:30N 04°25' W 002°56'1 1.9
2017-Sep-16 08:57N 04°24' W 002°56'2 3.0
2017-Sep-16 08:25N 04°22' W 002°55'1 3.1
2017-Sep-16 08:00N 04°21' W 002°55'2 3.2
2017-Sep-16 07:28N 04°19' W 002°54'1 3.1
2017-Sep-16 07:00N 04°18' W 002°54'1 2.7
2017-Sep-16 06:28N 04°17' W 002°54'1 2.9
2017-Sep-16 05:59N 04°15' W 002°54'2 3.0
2017-Sep-16 05:29N 04°14' W 002°53'2 2.9
2017-Sep-16 04:57N 04°12' W 002°53'1 2.8
2017-Sep-16 04:30N 04°11' W 002°53'2 2.9
2017-Sep-16 03:54N 04°09' W 002°53'1 3.2
2017-Sep-16 03:30N 04°08' W 002°53'2 3.6
2017-Sep-16 02:59N 04°06' W 002°53'2 3.5
2017-Sep-16 02:30N 04°04' W 002°52'2 3.4
2017-Sep-16 02:00N 04°03' W 002°52'2 3.4
2017-Sep-16 01:29N 04°01' W 002°52'2 3.4
2017-Sep-16 00:59N 03°59' W 002°52'2 3.3
2017-Sep-16 00:27N 03°58' W 002°52'5 3.2
2017-Sep-15 22:47N 03°52' W 002°53'20 2.8
2017-Sep-15 15:47N 04°12' W 002°49'2 3.6
2017-Sep-15 15:20N 04°13' W 002°48'2 3.6
2017-Sep-15 14:54N 04°15' W 002°48'3 5.0
2017-Sep-15 14:24N 04°17' W 002°47'3 6.2
2017-Sep-15 13:59N 04°19' W 002°46'3 5.1
2017-Sep-15 13:29N 04°22' W 002°46'2 3.3
2017-Sep-15 12:58N 04°23' W 002°47'1 2.3
2017-Sep-15 12:30N 04°24' W 002°47'1 2.0
2017-Sep-15 12:00N 04°25' W 002°48'1 2.8
2017-Sep-15 11:29N 04°27' W 002°48'2 3.3
2017-Sep-15 11:00N 04°28' W 002°49'2 3.3
2017-Sep-15 10:30N 04°29' W 002°50'2 3.3
2017-Sep-15 10:00N 04°31' W 002°51'2 3.6
2017-Sep-15 09:29N 04°32' W 002°52'2 3.0
2017-Sep-15 08:59N 04°34' W 002°52'2 3.5
2017-Sep-15 08:29N 04°35' W 002°53'0 1.0
2017-Sep-15 08:00N 04°36' W 002°53'0 0.1
2017-Sep-15 07:28N 04°36' W 002°53'0 0.1
2017-Sep-15 06:55N 04°36' W 002°53'0 0.0
2017-Sep-15 06:28N 04°36' W 002°53'  
Track history (hours):
 
Tides and Currents Weather Stations Pressure Air Temp Water Temp Dewpoint Dewpoint Depression Visibility Wind Speed Wind Dir Waves Ship Positions

Betty Knutsen

Last reported at 2017-Sep-25 05:58 UTC. Time now 2017-Sep-25 06:19 UTC.
Position N 04°42' W 002°41'.

Length 187 m; draft 8.8 m.

Type: Tanker. MMSI: 257392000.

Date/timePositionNaut miles runAvg speedWind from/ knotsBaromVisibWave heightAir tempDewpointWater temp
2017-Sep-25 05:58N 04°42' W 002°41'0 0.0
2017-Sep-25 05:28N 04°42' W 002°41'0 0.0
2017-Sep-25 04:58N 04°42' W 002°41'0 0.0
2017-Sep-25 04:25N 04°42' W 002°41'0 0.0
2017-Sep-25 03:58N 04°42' W 002°41'0 0.0
2017-Sep-25 03:13N 04°42' W 002°41'0 0.1
2017-Sep-25 02:43N 04°42' W 002°41'0 0.0
2017-Sep-25 02:28N 04°42' W 002°41'0 0.0
2017-Sep-25 01:58N 04°42' W 002°41'0 0.0
2017-Sep-25 01:28N 04°42' W 002°41'0 0.0
2017-Sep-25 00:58N 04°42' W 002°41'0 0.0
2017-Sep-25 00:22N 04°42' W 002°41'0 0.0
2017-Sep-24 23:55N 04°42' W 002°41'0 0.0
2017-Sep-24 23:28N 04°42' W 002°41'0 0.0
2017-Sep-24 22:58N 04°42' W 002°41'0 0.0
2017-Sep-24 22:28N 04°42' W 002°41'0 0.1
2017-Sep-24 21:58N 04°42' W 002°41'0 0.1
2017-Sep-24 21:28N 04°42' W 002°41'0 0.0
2017-Sep-24 20:58N 04°42' W 002°41'0 0.1
2017-Sep-24 20:25N 04°42' W 002°41'0 0.0
2017-Sep-24 19:58N 04°42' W 002°41'0 0.1
2017-Sep-24 19:28N 04°42' W 002°41'0 0.0
2017-Sep-24 18:58N 04°42' W 002°41'0 0.1
2017-Sep-24 18:28N 04°42' W 002°41'0 0.1
2017-Sep-24 17:58N 04°42' W 002°41'0 0.2
2017-Sep-24 17:28N 04°42' W 002°41'0 0.0
2017-Sep-24 16:55N 04°42' W 002°41'0 0.0
2017-Sep-24 16:28N 04°42' W 002°41'0 0.0
2017-Sep-24 15:58N 04°42' W 002°41'0 0.0
2017-Sep-24 15:28N 04°42' W 002°41'0 0.0
2017-Sep-24 14:58N 04°42' W 002°41'0 0.0
2017-Sep-24 14:28N 04°42' W 002°41'0 0.0
2017-Sep-24 13:58N 04°42' W 002°41'0 0.0
2017-Sep-24 13:28N 04°42' W 002°41'0 0.0
2017-Sep-24 12:58N 04°42' W 002°41'0 0.0
2017-Sep-24 12:28N 04°42' W 002°41'0 0.1
2017-Sep-24 11:58N 04°42' W 002°41'0 0.1
2017-Sep-24 11:28N 04°42' W 002°41'0 0.0
2017-Sep-24 10:58N 04°42' W 002°41'0 0.0
2017-Sep-24 10:28N 04°42' W 002°41'0 0.0
2017-Sep-24 09:58N 04°42' W 002°41'0 0.1
2017-Sep-24 09:28N 04°42' W 002°41'0 0.1
2017-Sep-24 09:01N 04°42' W 002°41'0 0.0
2017-Sep-24 08:31N 04°42' W 002°41'0 0.1
2017-Sep-24 08:00N 04°42' W 002°41'0 0.1
2017-Sep-24 07:30N 04°42' W 002°41'0 0.1
2017-Sep-24 06:58N 04°42' W 002°41'0 0.0
2017-Sep-24 06:30N 04°42' W 002°41'0 0.0
2017-Sep-24 06:00N 04°42' W 002°41'0 0.1
2017-Sep-24 05:30N 04°42' W 002°41'0 0.0
2017-Sep-24 05:00N 04°42' W 002°41'0 0.0
2017-Sep-24 04:27N 04°42' W 002°41'0 0.0
2017-Sep-24 04:00N 04°42' W 002°41'0 0.0
2017-Sep-24 03:30N 04°42' W 002°41'0 0.0
2017-Sep-24 03:00N 04°42' W 002°41'0 0.0
2017-Sep-24 02:30N 04°42' W 002°41'0 0.0
2017-Sep-24 02:00N 04°42' W 002°41'0 0.0
2017-Sep-24 01:30N 04°42' W 002°41'0 0.0
2017-Sep-24 01:00N 04°42' W 002°41'0 0.0
2017-Sep-24 00:30N 04°42' W 002°41'0 0.0
2017-Sep-24 00:00N 04°42' W 002°41'0 0.0
2017-Sep-23 23:30N 04°42' W 002°41'0 0.0
2017-Sep-23 23:00N 04°42' W 002°41'0 0.0
2017-Sep-23 22:30N 04°42' W 002°41'0 0.1
2017-Sep-23 22:00N 04°42' W 002°41'0 0.1
2017-Sep-23 21:30N 04°42' W 002°41'0 0.0
2017-Sep-23 21:00N 04°42' W 002°41'0 0.0
2017-Sep-23 20:30N 04°42' W 002°41'0 0.0
2017-Sep-23 20:00N 04°42' W 002°41'13 0.3
2017-Sep-22 02:00N 04°46' W 002°54'1 2.0
2017-Sep-22 01:29N 04°47' W 002°54'1 1.9
2017-Sep-22 00:59N 04°47' W 002°55'1 2.0
2017-Sep-22 00:30N 04°48' W 002°56'1 2.1
2017-Sep-22 00:00N 04°48' W 002°57'8 1.3
2017-Sep-21 17:42N 04°42' W 002°52'1 3.8
2017-Sep-21 17:23N 04°41' W 002°51'1 3.7
2017-Sep-21 17:00N 04°40' W 002°50'2 3.2
2017-Sep-21 16:30N 04°39' W 002°48'1 2.9
2017-Sep-21 16:00N 04°38' W 002°47'2 3.8
2017-Sep-21 15:29N 04°37' W 002°46'3 6.6
2017-Sep-21 15:01N 04°36' W 002°43'4 7.7
2017-Sep-21 14:30N 04°38' W 002°39'4 7.6
2017-Sep-21 14:00N 04°39' W 002°35'4 7.5
2017-Sep-21 13:29N 04°41' W 002°32'4 7.8
2017-Sep-21 12:59N 04°41' W 002°28'4 7.8
2017-Sep-21 12:30N 04°40' W 002°24'4 7.8
2017-Sep-21 12:00N 04°40' W 002°20'4 7.6
2017-Sep-21 11:29N 04°40' W 002°16'4 7.4
2017-Sep-21 10:59N 04°40' W 002°13'4 7.3
2017-Sep-21 10:29N 04°39' W 002°09'3 7.2
2017-Sep-21 10:01N 04°39' W 002°06'4 7.4
2017-Sep-21 09:30N 04°39' W 002°02'4 7.6
2017-Sep-21 09:00N 04°39' W 001°58'4 6.9
2017-Sep-21 08:29N 04°40' W 001°55'4 7.8
2017-Sep-21 07:55N 04°43' W 001°52'12 0.3
2017-Sep-19 18:22N 04°52' W 001°43'0 0.0
2017-Sep-19 18:01N 04°52' W 001°43'0 0.0
2017-Sep-19 17:27N 04°52' W 001°43'0 0.0
2017-Sep-19 17:00N 04°52' W 001°43'0 0.0
2017-Sep-19 16:30N 04°52' W 001°43'0 0.0
2017-Sep-19 16:00N 04°52' W 001°43'0 0.0
2017-Sep-19 15:30N 04°52' W 001°43'0 0.0
2017-Sep-19 15:00N 04°52' W 001°43'0 0.1
2017-Sep-19 14:30N 04°52' W 001°43'0 0.1
2017-Sep-19 14:00N 04°52' W 001°43'0 0.0
2017-Sep-19 13:27N 04°52' W 001°43'0 0.0
2017-Sep-19 13:00N 04°52' W 001°43'0 0.0
2017-Sep-19 12:30N 04°52' W 001°43'0 0.0
2017-Sep-19 12:00N 04°52' W 001°43'0 0.1
2017-Sep-19 11:30N 04°52' W 001°43'0 0.1
2017-Sep-19 11:00N 04°52' W 001°43'0 0.1
2017-Sep-19 10:30N 04°52' W 001°43'0 0.0
2017-Sep-19 10:00N 04°52' W 001°43'0 0.0
2017-Sep-19 09:30N 04°52' W 001°43'0 0.0
2017-Sep-19 09:00N 04°52' W 001°43'0 0.9
2017-Sep-19 08:29N 04°52' W 001°43'2 4.8
2017-Sep-19 08:01N 04°50' W 001°44'2 4.0
2017-Sep-19 07:30N 04°48' W 001°46'3 4.9
2017-Sep-19 06:57N 04°46' W 001°48'2 5.3
2017-Sep-19 06:30N 04°44' W 001°49'3 5.2
2017-Sep-19 05:57N 04°42' W 001°51'2 5.3
2017-Sep-19 05:29N 04°41' W 001°53'3 5.6
2017-Sep-19 04:57N 04°39' W 001°55'8 5.6
2017-Sep-19 03:35N 04°34' W 002°02'1 4.8
2017-Sep-19 03:19N 04°35' W 002°03'2 5.2
2017-Sep-19 02:59N 04°36' W 002°04'2 4.5
2017-Sep-19 02:29N 04°36' W 002°06'2 4.9
2017-Sep-19 02:00N 04°38' W 002°08'2 4.8
2017-Sep-19 01:30N 04°39' W 002°11'3 4.6
2017-Sep-19 00:52N 04°40' W 002°13'2 4.5
2017-Sep-19 00:30N 04°41' W 002°15'3 4.7
2017-Sep-18 23:57N 04°41' W 002°17'2 4.4
2017-Sep-18 23:30N 04°41' W 002°19'2 4.9
2017-Sep-18 23:00N 04°40' W 002°22'2 4.7
2017-Sep-18 22:29N 04°39' W 002°24'2 4.3
2017-Sep-18 21:59N 04°40' W 002°26'2 4.4
2017-Sep-18 21:29N 04°40' W 002°28'2 4.4
2017-Sep-18 21:00N 04°41' W 002°30'2 4.4
2017-Sep-18 20:30N 04°41' W 002°32'2 4.4
2017-Sep-18 20:00N 04°41' W 002°35'2 4.5
2017-Sep-18 19:29N 04°41' W 002°37'2 4.5
2017-Sep-18 18:59N 04°42' W 002°39'2 4.1
2017-Sep-18 18:30N 04°42' W 002°41'0 0.6
2017-Sep-18 18:00N 04°42' W 002°41'0 0.1
2017-Sep-18 17:30N 04°42' W 002°41'0 0.0
2017-Sep-18 17:00N 04°42' W 002°41'0 0.0
2017-Sep-18 16:30N 04°42' W 002°41'0 0.0
2017-Sep-18 15:57N 04°42' W 002°41'0 0.1
2017-Sep-18 15:30N 04°42' W 002°41'0 0.0
2017-Sep-18 15:00N 04°42' W 002°41'0 0.0
2017-Sep-18 14:30N 04°42' W 002°41'0 0.0
2017-Sep-18 14:00N 04°42' W 002°41'0 0.0
2017-Sep-18 13:30N 04°42' W 002°41'0 0.0
2017-Sep-18 13:00N 04°42' W 002°41'0 0.0
2017-Sep-18 12:30N 04°42' W 002°41'0 0.0
2017-Sep-18 12:00N 04°42' W 002°41'0 0.0
2017-Sep-18 11:30N 04°42' W 002°41'0 0.0
2017-Sep-18 11:00N 04°42' W 002°41'0 0.0
2017-Sep-18 10:29N 04°42' W 002°41'0 0.0
2017-Sep-18 09:59N 04°42' W 002°41'0 0.0
2017-Sep-18 09:29N 04°42' W 002°41'0 0.0
2017-Sep-18 08:59N 04°42' W 002°41'0 0.0
2017-Sep-18 08:29N 04°42' W 002°41'0 0.0
2017-Sep-18 07:59N 04°42' W 002°41'0 0.1
2017-Sep-18 07:29N 04°42' W 002°41'0 0.0
2017-Sep-18 06:59N 04°42' W 002°41'0 0.0
2017-Sep-18 06:29N 04°42' W 002°41'0 0.0
2017-Sep-18 05:56N 04°42' W 002°41'0 0.0
2017-Sep-18 05:29N 04°42' W 002°41'0 0.0
2017-Sep-18 04:59N 04°42' W 002°41'0 0.0
2017-Sep-18 04:29N 04°42' W 002°41'0 0.0
2017-Sep-18 03:59N 04°42' W 002°41'0 0.0
2017-Sep-18 03:29N 04°42' W 002°41'0 0.0
2017-Sep-18 02:59N 04°42' W 002°41'0 0.0
2017-Sep-18 02:29N 04°42' W 002°41'0 0.0
2017-Sep-18 01:59N 04°42' W 002°41'0 0.1
2017-Sep-18 01:29N 04°42' W 002°41'0 0.0
2017-Sep-18 00:59N 04°42' W 002°41'0 0.0
2017-Sep-18 00:29N 04°42' W 002°41'0 0.1
2017-Sep-17 23:59N 04°42' W 002°41'0 0.0
2017-Sep-17 23:29N 04°42' W 002°41'0 0.1
2017-Sep-17 22:59N 04°42' W 002°41'0 0.1
2017-Sep-17 22:29N 04°42' W 002°41'0 0.0
2017-Sep-17 21:59N 04°42' W 002°41'0 0.1
2017-Sep-17 21:29N 04°42' W 002°41'0 0.1
2017-Sep-17 20:59N 04°42' W 002°41'0 0.0
2017-Sep-17 20:29N 04°42' W 002°41'0 0.0
2017-Sep-17 19:59N 04°42' W 002°41'0 0.0
2017-Sep-17 19:29N 04°42' W 002°41'0 0.0
2017-Sep-17 18:59N 04°42' W 002°41'0 0.0
2017-Sep-17 18:29N 04°42' W 002°41'0 0.0
2017-Sep-17 17:59N 04°42' W 002°41'0 0.0
2017-Sep-17 17:29N 04°42' W 002°41'0 0.0
2017-Sep-17 16:59N 04°42' W 002°41'0 0.0
2017-Sep-17 16:29N 04°42' W 002°41'0 0.1
2017-Sep-17 15:59N 04°42' W 002°41'0 0.0
2017-Sep-17 15:29N 04°42' W 002°41'0 0.0
2017-Sep-17 14:59N 04°42' W 002°41'0 0.1
2017-Sep-17 14:28N 04°42' W 002°41'0 0.0
2017-Sep-17 13:56N 04°42' W 002°41'0 0.1
2017-Sep-17 13:30N 04°42' W 002°41'0 0.0
2017-Sep-17 13:00N 04°42' W 002°41'0 0.0
2017-Sep-17 12:30N 04°42' W 002°41'0 0.0
2017-Sep-17 12:00N 04°42' W 002°41'0 0.0
2017-Sep-17 11:30N 04°42' W 002°41'0 0.1
2017-Sep-17 10:57N 04°42' W 002°41'0 0.0
2017-Sep-17 10:30N 04°42' W 002°41'0 0.0
2017-Sep-17 09:58N 04°42' W 002°41'0 0.0
2017-Sep-17 09:28N 04°42' W 002°41'0 0.0
2017-Sep-17 08:59N 04°42' W 002°41'0 0.3
2017-Sep-17 08:30N 04°42' W 002°41'1 2.0
2017-Sep-17 08:00N 04°43' W 002°42'1 2.4
2017-Sep-17 07:29N 04°44' W 002°42'1 1.2
2017-Sep-17 06:59N 04°45' W 002°42'1 1.2
2017-Sep-17 06:30N 04°45' W 002°43'2 4.3
2017-Sep-17 06:00N 04°43' W 002°44'2 4.3
2017-Sep-17 05:28N 04°41' W 002°44'2 4.4
2017-Sep-17 05:00N 04°38' W 002°44'2 4.2
2017-Sep-17 04:29N 04°36' W 002°44'2 4.6
2017-Sep-17 04:01N 04°34' W 002°44'3 5.1
2017-Sep-17 03:30N 04°32' W 002°45'2 3.8
2017-Sep-17 03:00N 04°30' W 002°45'1 2.5
2017-Sep-17 02:29N 04°31' W 002°45'1 2.4
2017-Sep-17 01:59N 04°32' W 002°45'1 2.4
2017-Sep-17 01:31N 04°33' W 002°45'1 2.3
2017-Sep-17 01:00N 04°34' W 002°45'1 2.4
2017-Sep-17 00:30N 04°36' W 002°45'1 2.4
2017-Sep-17 00:00N 04°37' W 002°45'2 3.0
2017-Sep-16 23:29N 04°38' W 002°45'2 3.6
2017-Sep-16 22:59N 04°40' W 002°46'2 3.6
2017-Sep-16 22:30N 04°41' W 002°46'2 3.4
2017-Sep-16 22:00N 04°43' W 002°47'2 3.6
2017-Sep-16 21:29N 04°44' W 002°48'4 7.1
2017-Sep-16 20:59N 04°46' W 002°51'5 9.2
2017-Sep-16 20:29N 04°44' W 002°55'4 8.9
2017-Sep-16 20:00N 04°45' W 002°60'4 6.9
2017-Sep-16 19:30N 04°45' W 003°03'1 2.0
2017-Sep-16 19:00N 04°46' W 003°03'1 2.0
2017-Sep-16 18:30N 04°47' W 003°03'1 1.9
2017-Sep-16 17:58N 04°48' W 003°03'1 1.9
2017-Sep-16 17:28N 04°49' W 003°03'1 1.6
2017-Sep-16 16:58N 04°50' W 003°03'1 2.1
2017-Sep-16 16:23N 04°51' W 003°03'1 1.2
2017-Sep-16 15:57N 04°52' W 003°03'7 3.7
2017-Sep-16 13:58N 04°44' W 003°02'2 4.8
2017-Sep-16 13:30N 04°42' W 003°02'9 5.0
2017-Sep-16 11:42N 04°33' W 003°01'4 4.2
2017-Sep-16 10:42N 04°30' W 002°60'2 6.5
2017-Sep-16 10:26N 04°28' W 002°59'2 5.3
2017-Sep-16 09:59N 04°26' W 002°57'2 3.8
2017-Sep-16 09:30N 04°25' W 002°56'1 1.9
2017-Sep-16 08:57N 04°24' W 002°56'2 3.0
2017-Sep-16 08:25N 04°22' W 002°55'1 3.1
2017-Sep-16 08:00N 04°21' W 002°55'2 3.2
2017-Sep-16 07:28N 04°19' W 002°54'1 3.1
2017-Sep-16 07:00N 04°18' W 002°54'1 2.7
2017-Sep-16 06:28N 04°17' W 002°54'1 2.9
2017-Sep-16 05:59N 04°15' W 002°54'2 3.0
2017-Sep-16 05:29N 04°14' W 002°53'2 2.9
2017-Sep-16 04:57N 04°12' W 002°53'1 2.8
2017-Sep-16 04:30N 04°11' W 002°53'2 2.9
2017-Sep-16 03:54N 04°09' W 002°53'1 3.2
2017-Sep-16 03:30N 04°08' W 002°53'2 3.6
2017-Sep-16 02:59N 04°06' W 002°53'2 3.5
2017-Sep-16 02:30N 04°04' W 002°52'2 3.4
2017-Sep-16 02:00N 04°03' W 002°52'2 3.4
2017-Sep-16 01:29N 04°01' W 002°52'2 3.4
2017-Sep-16 00:59N 03°59' W 002°52'2 3.3
2017-Sep-16 00:27N 03°58' W 002°52'5 3.2
2017-Sep-15 22:47N 03°52' W 002°53'20 2.8
2017-Sep-15 15:47N 04°12' W 002°49'2 3.6
2017-Sep-15 15:20N 04°13' W 002°48'2 3.6
2017-Sep-15 14:54N 04°15' W 002°48'3 5.0
2017-Sep-15 14:24N 04°17' W 002°47'3 6.2
2017-Sep-15 13:59N 04°19' W 002°46'3 5.1
2017-Sep-15 13:29N 04°22' W 002°46'2 3.3
2017-Sep-15 12:58N 04°23' W 002°47'1 2.3
2017-Sep-15 12:30N 04°24' W 002°47'1 2.0
2017-Sep-15 12:00N 04°25' W 002°48'1 2.8
2017-Sep-15 11:29N 04°27' W 002°48'2 3.3
2017-Sep-15 11:00N 04°28' W 002°49'2 3.3
2017-Sep-15 10:30N 04°29' W 002°50'2 3.3
2017-Sep-15 10:00N 04°31' W 002°51'2 3.6
2017-Sep-15 09:29N 04°32' W 002°52'2 3.0
2017-Sep-15 08:59N 04°34' W 002°52'2 3.5
2017-Sep-15 08:29N 04°35' W 002°53'0 1.0
2017-Sep-15 08:00N 04°36' W 002°53'0 0.1
2017-Sep-15 07:28N 04°36' W 002°53'0 0.1
2017-Sep-15 06:55N 04°36' W 002°53'0 0.0
2017-Sep-15 06:28N 04°36' W 002°53'  

Dump ship's entire track history